PWSweather.com
Personal Weather Stations
Station Observations
RW002
Arlington, VA 22207

Arlington, VA 22207

Lat: 38.8955, Lon: -77.1443

Elevation: 390

Station Type: Davis Vantage Pro II

jp_angelone@msn.com

High Low Average
Temperature 78.7°F25.9°C 59.5°F15.3°C 67.1°F19.5°C
Dew Point 68.7°F20.4°C 51.0°F10.6°C 58.9°F14.9°C
Winds 11.0 mph 17.7 kmh Calm Calm 1.0 mph WSW1.6 kmh WSW
Wind Gusts 18.0 mph29.0 kmh -- 5.0 mph8.0 kmh
Humidity 93% 48% 77%
Pressure 30.02 in1016.6 mb 29.73 in1006.8 mb -
Precipitation 1.54 in39.1 mm - -
Hour Temp Dew Point Humidity Winds Wind Gusts Pressure Precip Precip Rate Daily Precip Total
12:02 AM 59.8°F15.4°C 56.5°F13.6°C 89% Calm Calm 6.0 mph9.7 kmh 30.02 in1016.6 mb 0.00 in0.0 mm 0.00 in0.0 mm 0.00 in0.0 mm
12:07 AM 59.8°F15.4°C 56.5°F13.6°C 89% 2.0 mph ESE3.2 kmh ESE 8.0 mph12.9 kmh 30.02 in1016.6 mb 0.00 in0.0 mm 0.00 in0.0 mm 0.00 in0.0 mm
12:12 AM 59.8°F15.4°C 56.9°F13.8°C 90% Calm Calm 8.0 mph12.9 kmh 30.02 in1016.6 mb 0.00 in0.0 mm 0.00 in0.0 mm 0.00 in0.0 mm
12:17 AM 59.8°F15.4°C 56.9°F13.8°C 90% Calm Calm 7.0 mph11.3 kmh 30.01 in1016.3 mb 0.00 in0.0 mm 0.00 in0.0 mm 0.00 in0.0 mm
12:22 AM 59.8°F15.4°C 56.9°F13.8°C 90% Calm Calm 4.0 mph6.4 kmh 30.01 in1016.3 mb 0.00 in0.0 mm 0.00 in0.0 mm 0.00 in0.0 mm
12:27 AM 59.8°F15.4°C 56.9°F13.8°C 90% Calm Calm 9.0 mph14.5 kmh 30.01 in1016.3 mb 0.00 in0.0 mm 0.00 in0.0 mm 0.00 in0.0 mm
12:32 AM 59.8°F15.4°C 56.9°F13.8°C 90% 1.0 mph E1.6 kmh E 4.0 mph6.4 kmh 30.01 in1016.3 mb 0.00 in0.0 mm 0.00 in0.0 mm 0.00 in0.0 mm
12:37 AM 59.8°F15.4°C 56.9°F13.8°C 90% Calm Calm 4.0 mph6.4 kmh 30.02 in1016.6 mb 0.00 in0.0 mm 0.00 in0.0 mm 0.00 in0.0 mm
12:42 AM 59.8°F15.4°C 56.9°F13.8°C 90% Calm Calm 9.0 mph14.5 kmh 30.01 in1016.3 mb 0.00 in0.0 mm 0.00 in0.0 mm 0.00 in0.0 mm
12:47 AM 59.8°F15.4°C 56.9°F13.8°C 90% Calm Calm -- 30.01 in1016.3 mb 0.00 in0.0 mm 0.00 in0.0 mm 0.00 in0.0 mm
12:52 AM 59.8°F15.4°C 56.9°F13.8°C 90% Calm Calm 1.0 mph1.6 kmh 30.01 in1016.3 mb 0.00 in0.0 mm 0.00 in0.0 mm 0.00 in0.0 mm
12:57 AM 59.8°F15.4°C 56.9°F13.8°C 90% Calm Calm 3.0 mph4.8 kmh 30.00 in1015.9 mb 0.00 in0.0 mm 0.00 in0.0 mm 0.00 in0.0 mm
01:02 AM 59.8°F15.4°C 56.9°F13.8°C 90% Calm Calm -- 30.00 in1015.9 mb 0.00 in0.0 mm 0.00 in0.0 mm 0.00 in0.0 mm
01:07 AM 59.8°F15.4°C 56.9°F13.8°C 90% Calm Calm 1.0 mph1.6 kmh 30.00 in1015.9 mb 0.00 in0.0 mm 0.00 in0.0 mm 0.00 in0.0 mm
01:12 AM 59.8°F15.4°C 56.9°F13.8°C 90% Calm Calm 1.0 mph1.6 kmh 29.99 in1015.6 mb 0.00 in0.0 mm 0.00 in0.0 mm 0.00 in0.0 mm
01:17 AM 59.8°F15.4°C 56.9°F13.8°C 90% Calm Calm -- 29.99 in1015.6 mb 0.00 in0.0 mm 0.00 in0.0 mm 0.00 in0.0 mm
01:22 AM 59.8°F15.4°C 57.2°F14.0°C 91% Calm Calm 1.0 mph1.6 kmh 29.99 in1015.6 mb 0.00 in0.0 mm 0.00 in0.0 mm 0.00 in0.0 mm
01:27 AM 59.8°F15.4°C 57.2°F14.0°C 91% Calm Calm 1.0 mph1.6 kmh 29.99 in1015.6 mb 0.00 in0.0 mm 0.00 in0.0 mm 0.00 in0.0 mm
01:32 AM 59.8°F15.4°C 57.2°F14.0°C 91% Calm Calm 2.0 mph3.2 kmh 29.98 in1015.2 mb 0.00 in0.0 mm 0.00 in0.0 mm 0.00 in0.0 mm
01:37 AM 59.8°F15.4°C 57.2°F14.0°C 91% Calm Calm 1.0 mph1.6 kmh 29.98 in1015.2 mb 0.00 in0.0 mm 0.00 in0.0 mm 0.00 in0.0 mm
01:42 AM 59.8°F15.4°C 57.2°F14.0°C 91% Calm Calm 7.0 mph11.3 kmh 29.98 in1015.2 mb 0.00 in0.0 mm 0.00 in0.0 mm 0.00 in0.0 mm
01:47 AM 59.9°F15.5°C 57.3°F14.1°C 91% Calm Calm 8.0 mph12.9 kmh 29.98 in1015.2 mb 0.00 in0.0 mm 0.00 in0.0 mm 0.00 in0.0 mm
01:52 AM 59.9°F15.5°C 57.3°F14.1°C 91% Calm Calm 2.0 mph3.2 kmh 29.98 in1015.2 mb 0.00 in0.0 mm 0.00 in0.0 mm 0.00 in0.0 mm
01:57 AM 59.9°F15.5°C 57.3°F14.1°C 91% Calm Calm -- 29.99 in1015.6 mb 0.00 in0.0 mm 0.00 in0.0 mm 0.00 in0.0 mm
02:02 AM 60.0°F15.6°C 57.4°F14.1°C 91% Calm Calm -- 29.98 in1015.2 mb 0.00 in0.0 mm 0.00 in0.0 mm 0.00 in0.0 mm
02:07 AM 60.0°F15.6°C 57.4°F14.1°C 91% Calm Calm -- 29.97 in1014.9 mb 0.00 in0.0 mm 0.00 in0.0 mm 0.00 in0.0 mm
02:12 AM 60.0°F15.6°C 57.4°F14.1°C 91% Calm Calm 2.0 mph3.2 kmh 29.96 in1014.6 mb 0.00 in0.0 mm 0.00 in0.0 mm 0.00 in0.0 mm
02:17 AM 59.9°F15.5°C 57.3°F14.1°C 91% 2.0 mph ESE3.2 kmh ESE 5.0 mph8.0 kmh 29.95 in1014.2 mb 0.00 in0.0 mm 0.00 in0.0 mm 0.00 in0.0 mm
02:22 AM 59.8°F15.4°C 57.2°F14.0°C 91% Calm Calm 5.0 mph8.0 kmh 29.95 in1014.2 mb 0.00 in0.0 mm 0.00 in0.0 mm 0.01 in0.3 mm
02:27 AM 59.7°F15.4°C 57.4°F14.1°C 92% Calm Calm 5.0 mph8.0 kmh 29.94 in1013.9 mb 0.07 in1.8 mm 0.84 in21.3 mm 0.01 in0.3 mm
02:32 AM 59.7°F15.4°C 57.4°F14.1°C 92% Calm Calm 5.0 mph8.0 kmh 29.94 in1013.9 mb 0.07 in1.8 mm 0.00 in0.0 mm 0.02 in0.5 mm
02:37 AM 59.6°F15.3°C 57.3°F14.1°C 92% Calm Calm -- 29.94 in1013.9 mb 0.05 in1.3 mm 0.00 in0.0 mm 0.02 in0.5 mm
02:42 AM 59.6°F15.3°C 57.3°F14.1°C 92% Calm Calm -- 29.94 in1013.9 mb 0.00 in0.0 mm 0.00 in0.0 mm 0.02 in0.5 mm
02:47 AM 59.6°F15.3°C 57.3°F14.1°C 92% Calm Calm 4.0 mph6.4 kmh 29.93 in1013.5 mb 0.00 in0.0 mm 0.00 in0.0 mm 0.02 in0.5 mm
02:52 AM 59.5°F15.3°C 57.2°F14.0°C 92% Calm Calm 1.0 mph1.6 kmh 29.93 in1013.5 mb 0.00 in0.0 mm 0.00 in0.0 mm 0.02 in0.5 mm
02:57 AM 59.5°F15.3°C 57.2°F14.0°C 92% Calm Calm 5.0 mph8.0 kmh 29.93 in1013.5 mb 0.00 in0.0 mm 0.00 in0.0 mm 0.02 in0.5 mm
03:02 AM 59.5°F15.3°C 57.2°F14.0°C 92% Calm Calm -- 29.92 in1013.2 mb 0.00 in0.0 mm 0.00 in0.0 mm 0.03 in0.8 mm
03:07 AM 59.5°F15.3°C 57.2°F14.0°C 92% Calm Calm 3.0 mph4.8 kmh 29.91 in1012.9 mb 0.08 in2.0 mm 0.96 in24.4 mm 0.03 in0.8 mm
03:12 AM 59.6°F15.3°C 57.3°F14.1°C 92% Calm Calm 6.0 mph9.7 kmh 29.91 in1012.9 mb 0.12 in3.0 mm 0.48 in12.2 mm 0.04 in1.0 mm
03:17 AM 59.7°F15.4°C 57.4°F14.1°C 92% Calm Calm 1.0 mph1.6 kmh 29.91 in1012.9 mb 0.18 in4.6 mm 0.72 in18.3 mm 0.06 in1.5 mm
03:22 AM 59.7°F15.4°C 57.4°F14.1°C 92% Calm Calm 8.0 mph12.9 kmh 29.90 in1012.5 mb 0.24 in6.1 mm 0.72 in18.3 mm 0.08 in2.0 mm
03:27 AM 59.7°F15.4°C 57.4°F14.1°C 92% Calm Calm 9.0 mph14.5 kmh 29.90 in1012.5 mb 0.21 in5.3 mm 0.00 in0.0 mm 0.10 in2.5 mm
03:32 AM 59.7°F15.4°C 57.4°F14.1°C 92% Calm Calm 5.0 mph8.0 kmh 29.90 in1012.5 mb 0.20 in5.1 mm 0.00 in0.0 mm 0.12 in3.0 mm
03:37 AM 59.7°F15.4°C 57.4°F14.1°C 92% Calm Calm -- 29.89 in1012.2 mb 0.17 in4.3 mm 0.00 in0.0 mm 0.13 in3.3 mm
03:42 AM 59.8°F15.4°C 57.5°F14.2°C 92% Calm Calm 1.0 mph1.6 kmh 29.89 in1012.2 mb 0.11 in2.8 mm 0.00 in0.0 mm 0.14 in3.6 mm
03:47 AM 59.8°F15.4°C 57.5°F14.2°C 92% Calm Calm 5.0 mph8.0 kmh 29.89 in1012.2 mb 0.08 in2.0 mm 0.00 in0.0 mm 0.15 in3.8 mm
03:52 AM 59.8°F15.4°C 57.5°F14.2°C 92% Calm Calm 6.0 mph9.7 kmh 29.89 in1012.2 mb 0.08 in2.0 mm 0.00 in0.0 mm 0.15 in3.8 mm
03:57 AM 59.9°F15.5°C 57.6°F14.2°C 92% Calm Calm 5.0 mph8.0 kmh 29.88 in1011.9 mb 0.06 in1.5 mm 0.00 in0.0 mm 0.15 in3.8 mm
04:02 AM 59.9°F15.5°C 57.6°F14.2°C 92% Calm Calm 1.0 mph1.6 kmh 29.87 in1011.5 mb 0.14 in3.6 mm 0.09 in2.3 mm 0.17 in4.3 mm
04:07 AM 59.9°F15.5°C 57.6°F14.2°C 92% Calm Calm 7.0 mph11.3 kmh 29.87 in1011.5 mb 0.11 in2.8 mm 0.00 in0.0 mm 0.18 in4.6 mm
04:12 AM 60.0°F15.6°C 57.7°F14.3°C 92% Calm Calm 7.0 mph11.3 kmh 29.87 in1011.5 mb 0.08 in2.0 mm 0.00 in0.0 mm 0.19 in4.8 mm
04:17 AM 60.1°F15.6°C 57.8°F14.3°C 92% 1.0 mph E1.6 kmh E 9.0 mph14.5 kmh 29.86 in1011.2 mb 0.12 in3.0 mm 0.48 in12.2 mm 0.20 in5.1 mm
04:22 AM 60.2°F15.7°C 57.9°F14.4°C 92% Calm Calm 9.0 mph14.5 kmh 29.85 in1010.8 mb 0.08 in2.0 mm 0.00 in0.0 mm 0.21 in5.3 mm
04:27 AM 60.2°F15.7°C 57.9°F14.4°C 92% Calm Calm 9.0 mph14.5 kmh 29.85 in1010.8 mb 0.08 in2.0 mm 0.00 in0.0 mm 0.21 in5.3 mm
04:32 AM 60.3°F15.7°C 58.0°F14.4°C 92% Calm Calm 1.0 mph1.6 kmh 29.85 in1010.8 mb 0.06 in1.5 mm 0.00 in0.0 mm 0.22 in5.6 mm
04:37 AM 60.4°F15.8°C 58.4°F14.7°C 93% Calm Calm 8.0 mph12.9 kmh 29.84 in1010.5 mb 0.06 in1.5 mm 0.00 in0.0 mm 0.22 in5.6 mm
04:42 AM 60.5°F15.8°C 58.2°F14.6°C 92% Calm Calm -- 29.84 in1010.5 mb 0.19 in4.8 mm 1.56 in39.6 mm 0.23 in5.8 mm
04:47 AM 60.6°F15.9°C 58.3°F14.6°C 92% 3.0 mph E4.8 kmh E 3.0 mph4.8 kmh 29.83 in1010.2 mb 0.18 in4.6 mm 0.00 in0.0 mm 0.24 in6.1 mm
04:52 AM 60.8°F16.0°C 58.5°F14.7°C 92% Calm Calm 1.0 mph1.6 kmh 29.84 in1010.5 mb 0.11 in2.8 mm 0.00 in0.0 mm 0.25 in6.4 mm
04:57 AM 60.9°F16.1°C 58.6°F14.8°C 92% Calm Calm -- 29.83 in1010.2 mb 0.18 in4.6 mm 0.84 in21.3 mm 0.27 in6.9 mm
05:02 AM 61.1°F16.2°C 59.1°F15.1°C 93% 5.0 mph SSE8.0 kmh SSE 8.0 mph12.9 kmh 29.83 in1010.2 mb 0.11 in2.8 mm 0.00 in0.0 mm 0.28 in7.1 mm
05:07 AM 61.3°F16.3°C 59.0°F15.0°C 92% Calm Calm 8.0 mph12.9 kmh 29.83 in1010.2 mb 0.06 in1.5 mm 0.00 in0.0 mm 0.28 in7.1 mm
05:12 AM 61.4°F16.3°C 59.1°F15.1°C 92% Calm Calm 4.0 mph6.4 kmh 29.82 in1009.8 mb 0.05 in1.3 mm 0.00 in0.0 mm 0.29 in7.4 mm
05:17 AM 61.6°F16.4°C 59.2°F15.1°C 92% 3.0 mph SSE4.8 kmh SSE 8.0 mph12.9 kmh 29.82 in1009.8 mb 0.05 in1.3 mm 0.00 in0.0 mm 0.29 in7.4 mm
05:22 AM 61.8°F16.6°C 59.4°F15.2°C 92% Calm Calm 8.0 mph12.9 kmh 29.82 in1009.8 mb 0.07 in1.8 mm 0.24 in6.1 mm 0.30 in7.6 mm
05:27 AM 61.9°F16.6°C 59.5°F15.3°C 92% 3.0 mph SSE4.8 kmh SSE 4.0 mph6.4 kmh 29.82 in1009.8 mb 0.07 in1.8 mm 0.00 in0.0 mm 0.30 in7.6 mm
05:32 AM 62.1°F16.7°C 59.7°F15.4°C 92% Calm Calm 6.0 mph9.7 kmh 29.81 in1009.5 mb 0.07 in1.8 mm 0.00 in0.0 mm 0.31 in7.9 mm
05:37 AM 62.2°F16.8°C 59.8°F15.4°C 92% Calm Calm 5.0 mph8.0 kmh 29.81 in1009.5 mb 0.09 in2.3 mm 0.24 in6.1 mm 0.32 in8.1 mm
05:42 AM 62.4°F16.9°C 60.0°F15.6°C 92% Calm Calm 12.0 mph19.3 kmh 29.81 in1009.5 mb 0.08 in2.0 mm 0.00 in0.0 mm 0.32 in8.1 mm
05:47 AM 62.6°F17.0°C 60.2°F15.7°C 92% Calm Calm 3.0 mph4.8 kmh 29.80 in1009.1 mb 0.08 in2.0 mm 0.00 in0.0 mm 0.33 in8.4 mm
05:52 AM 62.7°F17.1°C 60.3°F15.7°C 92% Calm Calm -- 29.80 in1009.1 mb 0.05 in1.3 mm 0.00 in0.0 mm 0.33 in8.4 mm
05:57 AM 62.8°F17.1°C 60.4°F15.8°C 92% 1.0 mph SE1.6 kmh SE 5.0 mph8.0 kmh 29.80 in1009.1 mb 0.12 in3.0 mm 0.84 in21.3 mm 0.34 in8.6 mm
06:02 AM 63.0°F17.2°C 60.6°F15.9°C 92% Calm Calm -- 29.80 in1009.1 mb 0.25 in6.4 mm 0.14 in3.6 mm 0.36 in9.1 mm
06:07 AM 63.1°F17.3°C 60.7°F15.9°C 92% Calm Calm -- 29.79 in1008.8 mb 0.30 in7.6 mm 0.60 in15.2 mm 0.38 in9.7 mm
06:12 AM 63.2°F17.3°C 60.8°F16.0°C 92% Calm Calm -- 29.79 in1008.8 mb 0.23 in5.8 mm 0.00 in0.0 mm 0.40 in10.2 mm
06:17 AM 63.4°F17.4°C 61.0°F16.1°C 92% 1.0 mph S1.6 kmh S 2.0 mph3.2 kmh 29.79 in1008.8 mb 1.20 in30.5 mm 11.64 in295.7 mm 0.42 in10.7 mm
06:22 AM 63.5°F17.5°C 61.1°F16.2°C 92% Calm Calm 1.0 mph1.6 kmh 29.78 in1008.5 mb 0.41 in10.4 mm 0.00 in0.0 mm 0.49 in12.4 mm
06:27 AM 63.6°F17.6°C 61.2°F16.2°C 92% Calm Calm -- 29.77 in1008.1 mb 0.32 in8.1 mm 0.00 in0.0 mm 0.53 in13.5 mm
06:32 AM 63.8°F17.7°C 61.4°F16.3°C 92% Calm Calm 3.0 mph4.8 kmh 29.77 in1008.1 mb 0.34 in8.6 mm 0.24 in6.1 mm 0.58 in14.7 mm
06:37 AM 64.0°F17.8°C 61.6°F16.4°C 92% Calm Calm -- 29.77 in1008.1 mb 0.20 in5.1 mm 0.00 in0.0 mm 0.60 in15.2 mm
06:42 AM 64.2°F17.9°C 61.8°F16.6°C 92% Calm Calm -- 29.76 in1007.8 mb 0.14 in3.6 mm 0.00 in0.0 mm 0.62 in15.7 mm
06:47 AM 64.4°F18.0°C 62.0°F16.7°C 92% 1.0 mph S1.6 kmh S 3.0 mph4.8 kmh 29.76 in1007.8 mb 0.26 in6.6 mm 1.44 in36.6 mm 0.63 in16.0 mm
06:52 AM 64.6°F18.1°C 62.2°F16.8°C 92% 11.0 mph SSE17.7 kmh SSE 11.0 mph17.7 kmh 29.77 in1008.1 mb 0.09 in2.3 mm 0.00 in0.0 mm 0.64 in16.3 mm
06:57 AM 64.9°F18.3°C 62.5°F16.9°C 92% Calm Calm 11.0 mph17.7 kmh 29.76 in1007.8 mb 0.08 in2.0 mm 0.00 in0.0 mm 0.65 in16.5 mm
07:02 AM 65.2°F18.4°C 62.8°F17.1°C 92% 6.0 mph SSE9.7 kmh SSE 12.0 mph19.3 kmh 29.76 in1007.8 mb 0.07 in1.8 mm 0.00 in0.0 mm 0.65 in16.5 mm
07:07 AM 65.6°F18.7°C 63.2°F17.3°C 92% Calm Calm 12.0 mph19.3 kmh 29.76 in1007.8 mb 0.04 in1.0 mm 0.00 in0.0 mm 0.65 in16.5 mm
07:12 AM 65.8°F18.8°C 63.4°F17.4°C 92% 4.0 mph S6.4 kmh S 12.0 mph19.3 kmh 29.75 in1007.5 mb 0.24 in6.1 mm 2.40 in61.0 mm 0.66 in16.8 mm
07:17 AM 66.0°F18.9°C 63.6°F17.6°C 92% 4.0 mph S6.4 kmh S 13.0 mph20.9 kmh 29.75 in1007.5 mb 0.14 in3.6 mm 0.00 in0.0 mm 0.68 in17.3 mm
07:22 AM 66.1°F18.9°C 63.7°F17.6°C 92% Calm Calm 14.0 mph22.5 kmh 29.76 in1007.8 mb 0.06 in1.5 mm 0.00 in0.0 mm 0.68 in17.3 mm
07:27 AM 66.2°F19.0°C 63.8°F17.7°C 92% 3.0 mph S4.8 kmh S 14.0 mph22.5 kmh 29.76 in1007.8 mb 0.04 in1.0 mm 0.00 in0.0 mm 0.68 in17.3 mm
07:32 AM 66.4°F19.1°C 64.0°F17.8°C 92% 5.0 mph S8.0 kmh S 16.0 mph25.7 kmh 29.76 in1007.8 mb 0.00 in0.0 mm 0.00 in0.0 mm 0.68 in17.3 mm
07:37 AM 66.5°F19.2°C 64.1°F17.8°C 92% Calm Calm 16.0 mph25.7 kmh 29.75 in1007.5 mb 0.00 in0.0 mm 0.00 in0.0 mm 0.68 in17.3 mm
07:42 AM 66.5°F19.2°C 64.1°F17.8°C 92% Calm Calm 16.0 mph25.7 kmh 29.76 in1007.8 mb 0.00 in0.0 mm 0.00 in0.0 mm 0.68 in17.3 mm
07:47 AM 66.6°F19.2°C 64.2°F17.9°C 92% 4.0 mph SW6.4 kmh SW 16.0 mph25.7 kmh 29.75 in1007.5 mb 0.00 in0.0 mm 0.00 in0.0 mm 0.68 in17.3 mm
07:52 AM 66.7°F19.3°C 64.3°F17.9°C 92% 5.0 mph SSE8.0 kmh SSE 13.0 mph20.9 kmh 29.75 in1007.5 mb 0.00 in0.0 mm 0.00 in0.0 mm 0.68 in17.3 mm
07:57 AM 66.7°F19.3°C 64.3°F17.9°C 92% 9.0 mph S14.5 kmh S 13.0 mph20.9 kmh 29.75 in1007.5 mb 0.00 in0.0 mm 0.00 in0.0 mm 0.68 in17.3 mm
08:02 AM 66.9°F19.4°C 64.5°F18.1°C 92% Calm Calm 11.0 mph17.7 kmh 29.75 in1007.5 mb 0.00 in0.0 mm 0.00 in0.0 mm 0.68 in17.3 mm
08:07 AM 67.0°F19.4°C 64.6°F18.1°C 92% Calm Calm 13.0 mph20.9 kmh 29.75 in1007.5 mb 0.00 in0.0 mm 0.00 in0.0 mm 0.69 in17.5 mm
08:12 AM 67.1°F19.5°C 64.7°F18.2°C 92% 3.0 mph S4.8 kmh S 17.0 mph27.4 kmh 29.75 in1007.5 mb 0.32 in8.1 mm 3.84 in97.5 mm 0.69 in17.5 mm
08:17 AM 67.2°F19.6°C 64.8°F18.2°C 92% 6.0 mph SSE9.7 kmh SSE 17.0 mph27.4 kmh 29.75 in1007.5 mb 0.11 in2.8 mm 0.00 in0.0 mm 0.71 in18.0 mm
08:22 AM 67.2°F19.6°C 64.8°F18.2°C 92% 4.0 mph S6.4 kmh S 17.0 mph27.4 kmh 29.75 in1007.5 mb 0.11 in2.8 mm 0.00 in0.0 mm 0.72 in18.3 mm
08:27 AM 67.2°F19.6°C 64.8°F18.2°C 92% 3.0 mph S4.8 kmh S 17.0 mph27.4 kmh 29.76 in1007.8 mb 0.12 in3.0 mm 0.12 in3.0 mm 0.73 in18.5 mm
08:32 AM 67.3°F19.6°C 64.9°F18.3°C 92% 4.0 mph SSE6.4 kmh SSE 13.0 mph20.9 kmh 29.76 in1007.8 mb 0.63 in16.0 mm 6.12 in155.4 mm 0.73 in18.5 mm
08:37 AM 67.3°F19.6°C 64.9°F18.3°C 92% 1.0 mph S1.6 kmh S 13.0 mph20.9 kmh 29.75 in1007.5 mb 0.73 in18.5 mm 1.20 in30.5 mm 0.78 in19.8 mm
08:42 AM 67.4°F19.7°C 65.0°F18.3°C 92% 7.0 mph S11.3 kmh S 14.0 mph22.5 kmh 29.75 in1007.5 mb 0.19 in4.8 mm 0.00 in0.0 mm 0.81 in20.6 mm
08:47 AM 67.5°F19.7°C 65.1°F18.4°C 92% 8.0 mph S12.9 kmh S 14.0 mph22.5 kmh 29.75 in1007.5 mb 0.26 in6.6 mm 0.84 in21.3 mm 0.83 in21.1 mm
08:52 AM 67.6°F19.8°C 65.2°F18.4°C 92% 4.0 mph S6.4 kmh S 14.0 mph22.5 kmh 29.75 in1007.5 mb 0.16 in4.1 mm 0.00 in0.0 mm 0.84 in21.3 mm
08:57 AM 67.6°F19.8°C 65.2°F18.4°C 92% 6.0 mph S9.7 kmh S 18.0 mph29.0 kmh 29.76 in1007.8 mb 2.70 in68.6 mm 30.48 in774.2 mm 0.86 in21.8 mm
09:02 AM 67.6°F19.8°C 65.2°F18.4°C 92% Calm Calm 18.0 mph29.0 kmh 29.77 in1008.1 mb 0.48 in12.2 mm 0.00 in0.0 mm 1.00 in25.4 mm
09:07 AM 67.6°F19.8°C 65.2°F18.4°C 92% 1.0 mph S1.6 kmh S 18.0 mph29.0 kmh 29.77 in1008.1 mb 1.19 in30.2 mm 8.52 in216.4 mm 1.05 in26.7 mm
09:12 AM 67.7°F19.8°C 65.3°F18.5°C 92% 4.0 mph S6.4 kmh S 18.0 mph29.0 kmh 29.77 in1008.1 mb 0.78 in19.8 mm 0.00 in0.0 mm 1.17 in29.7 mm
09:17 AM 67.7°F19.8°C 65.3°F18.5°C 92% Calm Calm 6.0 mph9.7 kmh 29.75 in1007.5 mb 0.29 in7.4 mm 0.00 in0.0 mm 1.22 in31.0 mm
09:22 AM 67.7°F19.8°C 65.3°F18.5°C 92% Calm Calm 1.0 mph1.6 kmh 29.77 in1008.1 mb 0.37 in9.4 mm 0.96 in24.4 mm 1.24 in31.5 mm
09:27 AM 67.7°F19.8°C 65.3°F18.5°C 92% Calm Calm -- 29.76 in1007.8 mb 0.30 in7.6 mm 0.00 in0.0 mm 1.27 in32.3 mm
09:32 AM 67.7°F19.8°C 65.3°F18.5°C 92% Calm Calm 1.0 mph1.6 kmh 29.76 in1007.8 mb 0.31 in7.9 mm 0.12 in3.0 mm 1.30 in33.0 mm
09:37 AM 67.7°F19.8°C 65.3°F18.5°C 92% Calm Calm -- 29.76 in1007.8 mb 0.33 in8.4 mm 0.24 in6.1 mm 1.32 in33.5 mm
09:42 AM 67.7°F19.8°C 65.3°F18.5°C 92% Calm Calm -- 29.76 in1007.8 mb 0.38 in9.7 mm 0.60 in15.2 mm 1.35 in34.3 mm
09:47 AM 67.7°F19.8°C 65.3°F18.5°C 92% Calm Calm -- 29.76 in1007.8 mb 0.62 in15.7 mm 2.88 in73.2 mm 1.39 in35.3 mm
09:52 AM 67.7°F19.8°C 65.3°F18.5°C 92% Calm Calm -- 29.75 in1007.5 mb 0.86 in21.8 mm 2.88 in73.2 mm 1.46 in37.1 mm
09:57 AM 67.7°F19.8°C 65.3°F18.5°C 92% Calm Calm -- 29.75 in1007.5 mb 0.30 in7.6 mm 0.00 in0.0 mm 1.53 in38.9 mm
10:02 AM 67.8°F19.9°C 65.4°F18.6°C 92% Calm Calm -- 29.74 in1007.1 mb 0.10 in2.5 mm 0.00 in0.0 mm 1.54 in39.1 mm
10:07 AM 67.8°F19.9°C 65.4°F18.6°C 92% Calm Calm -- 29.74 in1007.1 mb 0.06 in1.5 mm 0.00 in0.0 mm 1.54 in39.1 mm
10:12 AM 67.9°F19.9°C 65.5°F18.6°C 92% Calm Calm -- 29.75 in1007.5 mb 0.04 in1.0 mm 0.00 in0.0 mm 1.54 in39.1 mm
10:17 AM 68.0°F20.0°C 65.6°F18.7°C 92% Calm Calm -- 29.74 in1007.1 mb 0.00 in0.0 mm 0.00 in0.0 mm 1.54 in39.1 mm
10:22 AM 67.7°F19.8°C 65.3°F18.5°C 92% Calm Calm 3.0 mph4.8 kmh 29.73 in1006.8 mb 0.00 in0.0 mm 0.00 in0.0 mm 1.54 in39.1 mm
10:27 AM 67.2°F19.6°C 64.8°F18.2°C 92% Calm Calm 5.0 mph8.0 kmh 29.74 in1007.1 mb 0.00 in0.0 mm 0.00 in0.0 mm 1.54 in39.1 mm
10:32 AM 66.8°F19.3°C 64.4°F18.0°C 92% 3.0 mph NW4.8 kmh NW 5.0 mph8.0 kmh 29.74 in1007.1 mb 0.00 in0.0 mm 0.00 in0.0 mm 1.54 in39.1 mm
10:37 AM 66.5°F19.2°C 64.4°F18.0°C 93% 1.0 mph NNW1.6 kmh NNW 5.0 mph8.0 kmh 29.75 in1007.5 mb 0.00 in0.0 mm 0.00 in0.0 mm 1.54 in39.1 mm
10:42 AM 66.2°F19.0°C 63.8°F17.7°C 92% Calm Calm 5.0 mph8.0 kmh 29.75 in1007.5 mb 0.00 in0.0 mm 0.00 in0.0 mm 1.54 in39.1 mm
10:47 AM 66.2°F19.0°C 63.8°F17.7°C 92% 2.0 mph NNW3.2 kmh NNW 6.0 mph9.7 kmh 29.75 in1007.5 mb 0.00 in0.0 mm 0.00 in0.0 mm 1.54 in39.1 mm
10:52 AM 66.4°F19.1°C 64.0°F17.8°C 92% Calm Calm -- 29.75 in1007.5 mb 0.00 in0.0 mm 0.00 in0.0 mm 1.54 in39.1 mm
10:57 AM 66.9°F19.4°C 64.5°F18.1°C 92% Calm Calm 4.0 mph6.4 kmh 29.75 in1007.5 mb 0.00 in0.0 mm 0.00 in0.0 mm 1.54 in39.1 mm
11:02 AM 67.2°F19.6°C 64.8°F18.2°C 92% Calm Calm -- 29.75 in1007.5 mb 0.00 in0.0 mm 0.00 in0.0 mm 1.54 in39.1 mm
11:07 AM 67.4°F19.7°C 65.0°F18.3°C 92% Calm Calm -- 29.75 in1007.5 mb 0.00 in0.0 mm 0.00 in0.0 mm 1.54 in39.1 mm
11:12 AM 67.6°F19.8°C 65.2°F18.4°C 92% Calm Calm 2.0 mph3.2 kmh 29.75 in1007.5 mb 0.00 in0.0 mm 0.00 in0.0 mm 1.54 in39.1 mm
11:17 AM 67.9°F19.9°C 65.5°F18.6°C 92% Calm Calm -- 29.75 in1007.5 mb 0.00 in0.0 mm 0.00 in0.0 mm 1.54 in39.1 mm
11:22 AM 68.2°F20.1°C 65.8°F18.8°C 92% Calm Calm -- 29.75 in1007.5 mb 0.00 in0.0 mm 0.00 in0.0 mm 1.54 in39.1 mm
11:27 AM 68.2°F20.1°C 65.8°F18.8°C 92% Calm Calm 1.0 mph1.6 kmh 29.75 in1007.5 mb 0.00 in0.0 mm 0.00 in0.0 mm 1.54 in39.1 mm
11:32 AM 68.2°F20.1°C 65.8°F18.8°C 92% Calm Calm -- 29.75 in1007.5 mb 0.00 in0.0 mm 0.00 in0.0 mm 1.54 in39.1 mm
11:37 AM 68.2°F20.1°C 65.8°F18.8°C 92% Calm Calm -- 29.75 in1007.5 mb 0.00 in0.0 mm 0.00 in0.0 mm 1.54 in39.1 mm
11:42 AM 68.0°F20.0°C 65.9°F18.8°C 93% Calm Calm 2.0 mph3.2 kmh 29.75 in1007.5 mb 0.00 in0.0 mm 0.00 in0.0 mm 1.54 in39.1 mm
11:47 AM 68.3°F20.2°C 65.9°F18.8°C 92% Calm Calm 2.0 mph3.2 kmh 29.75 in1007.5 mb 0.00 in0.0 mm 0.00 in0.0 mm 1.54 in39.1 mm
11:52 AM 68.4°F20.2°C 66.0°F18.9°C 92% 1.0 mph NW1.6 kmh NW 3.0 mph4.8 kmh 29.76 in1007.8 mb 0.00 in0.0 mm 0.00 in0.0 mm 1.54 in39.1 mm
11:57 AM 68.5°F20.3°C 66.4°F19.1°C 93% Calm Calm 3.0 mph4.8 kmh 29.75 in1007.5 mb 0.00 in0.0 mm 0.00 in0.0 mm 1.54 in39.1 mm
12:02 PM 68.8°F20.4°C 66.7°F19.3°C 93% Calm Calm 6.0 mph9.7 kmh 29.75 in1007.5 mb 0.00 in0.0 mm 0.00 in0.0 mm 1.54 in39.1 mm
12:07 PM 69.1°F20.6°C 66.7°F19.3°C 92% Calm Calm 6.0 mph9.7 kmh 29.75 in1007.5 mb 0.00 in0.0 mm 0.00 in0.0 mm 1.54 in39.1 mm
12:12 PM 69.4°F20.8°C 67.0°F19.4°C 92% Calm Calm -- 29.75 in1007.5 mb 0.00 in0.0 mm 0.00 in0.0 mm 1.54 in39.1 mm
12:17 PM 69.9°F21.1°C 67.5°F19.7°C 92% Calm Calm -- 29.74 in1007.1 mb 0.00 in0.0 mm 0.00 in0.0 mm 1.54 in39.1 mm
12:22 PM 70.6°F21.4°C 67.8°F19.9°C 91% 1.0 mph WSW1.6 kmh WSW 4.0 mph6.4 kmh 29.75 in1007.5 mb 0.00 in0.0 mm 0.00 in0.0 mm 1.54 in39.1 mm
12:27 PM 71.3°F21.8°C 68.2°F20.1°C 90% Calm Calm 8.0 mph12.9 kmh 29.74 in1007.1 mb 0.00 in0.0 mm 0.00 in0.0 mm 1.54 in39.1 mm
12:32 PM 72.1°F22.3°C 68.7°F20.4°C 89% Calm Calm 1.0 mph1.6 kmh 29.74 in1007.1 mb 0.00 in0.0 mm 0.00 in0.0 mm 1.54 in39.1 mm
12:37 PM 72.8°F22.7°C 68.7°F20.4°C 87% Calm Calm 4.0 mph6.4 kmh 29.74 in1007.1 mb 0.00 in0.0 mm 0.00 in0.0 mm 1.54 in39.1 mm
12:42 PM 73.5°F23.1°C 68.7°F20.4°C 85% Calm Calm 1.0 mph1.6 kmh 29.74 in1007.1 mb 0.00 in0.0 mm 0.00 in0.0 mm 1.54 in39.1 mm
12:47 PM 74.0°F23.3°C 68.5°F20.3°C 83% Calm Calm 2.0 mph3.2 kmh 29.74 in1007.1 mb 0.00 in0.0 mm 0.00 in0.0 mm 1.54 in39.1 mm
12:52 PM 74.3°F23.5°C 68.4°F20.2°C 82% Calm Calm -- 29.74 in1007.1 mb 0.00 in0.0 mm 0.00 in0.0 mm 1.54 in39.1 mm
12:57 PM 74.7°F23.7°C 68.1°F20.1°C 80% Calm Calm 2.0 mph3.2 kmh 29.73 in1006.8 mb 0.00 in0.0 mm 0.00 in0.0 mm 1.54 in39.1 mm
01:02 PM 75.4°F24.1°C 68.0°F20.0°C 78% Calm Calm 4.0 mph6.4 kmh 29.73 in1006.8 mb 0.00 in0.0 mm 0.00 in0.0 mm 1.54 in39.1 mm
01:07 PM 75.7°F24.3°C 68.0°F20.0°C 77% Calm Calm 2.0 mph3.2 kmh 29.73 in1006.8 mb 0.00 in0.0 mm 0.00 in0.0 mm 1.54 in39.1 mm
01:12 PM 76.4°F24.7°C 67.9°F19.9°C 75% 2.0 mph NNW3.2 kmh NNW 3.0 mph4.8 kmh 29.73 in1006.8 mb 0.00 in0.0 mm 0.00 in0.0 mm 1.54 in39.1 mm
01:17 PM 76.4°F24.7°C 67.1°F19.5°C 73% 1.0 mph WSW1.6 kmh WSW 5.0 mph8.0 kmh 29.73 in1006.8 mb 0.00 in0.0 mm 0.00 in0.0 mm 1.54 in39.1 mm
01:22 PM 76.8°F24.9°C 67.1°F19.5°C 72% Calm Calm -- 29.73 in1006.8 mb 0.00 in0.0 mm 0.00 in0.0 mm 1.54 in39.1 mm
01:27 PM 77.0°F25.0°C 66.0°F18.9°C 69% Calm Calm 1.0 mph1.6 kmh 29.74 in1007.1 mb 0.00 in0.0 mm 0.00 in0.0 mm 1.54 in39.1 mm
01:32 PM 77.4°F25.2°C 65.6°F18.7°C 67% Calm Calm 6.0 mph9.7 kmh 29.74 in1007.1 mb 0.00 in0.0 mm 0.00 in0.0 mm 1.54 in39.1 mm
01:37 PM 77.3°F25.2°C 64.6°F18.1°C 65% 5.0 mph SW8.0 kmh SW 13.0 mph20.9 kmh 29.74 in1007.1 mb 0.00 in0.0 mm 0.00 in0.0 mm 1.54 in39.1 mm
01:42 PM 77.3°F25.2°C 65.0°F18.3°C 66% 1.0 mph NNW1.6 kmh NNW 13.0 mph20.9 kmh 29.74 in1007.1 mb 0.00 in0.0 mm 0.00 in0.0 mm 1.54 in39.1 mm
01:47 PM 77.4°F25.2°C 64.2°F17.9°C 64% 2.0 mph NW3.2 kmh NW 13.0 mph20.9 kmh 29.74 in1007.1 mb 0.00 in0.0 mm 0.00 in0.0 mm 1.54 in39.1 mm
01:52 PM 77.2°F25.1°C 64.1°F17.8°C 64% 1.0 mph NW1.6 kmh NW 13.0 mph20.9 kmh 29.74 in1007.1 mb 0.00 in0.0 mm 0.00 in0.0 mm 1.54 in39.1 mm
01:57 PM 77.2°F25.1°C 64.1°F17.8°C 64% 3.0 mph NNW4.8 kmh NNW 13.0 mph20.9 kmh 29.74 in1007.1 mb 0.00 in0.0 mm 0.00 in0.0 mm 1.54 in39.1 mm
02:02 PM 77.3°F25.2°C 64.2°F17.9°C 64% Calm Calm 13.0 mph20.9 kmh 29.74 in1007.1 mb 0.00 in0.0 mm 0.00 in0.0 mm 1.54 in39.1 mm
02:07 PM 77.6°F25.3°C 64.0°F17.8°C 63% 1.0 mph W1.6 kmh W 8.0 mph12.9 kmh 29.74 in1007.1 mb 0.00 in0.0 mm 0.00 in0.0 mm 1.54 in39.1 mm
02:12 PM 77.9°F25.5°C 63.8°F17.7°C 62% Calm Calm 8.0 mph12.9 kmh 29.74 in1007.1 mb 0.00 in0.0 mm 0.00 in0.0 mm 1.54 in39.1 mm
02:17 PM 78.5°F25.8°C 63.9°F17.7°C 61% Calm Calm 4.0 mph6.4 kmh 29.74 in1007.1 mb 0.00 in0.0 mm 0.00 in0.0 mm 1.54 in39.1 mm
02:22 PM 78.7°F25.9°C 63.1°F17.3°C 59% 1.0 mph W1.6 kmh W 4.0 mph6.4 kmh 29.74 in1007.1 mb 0.00 in0.0 mm 0.00 in0.0 mm 1.54 in39.1 mm
02:27 PM 78.7°F25.9°C 62.2°F16.8°C 57% 6.0 mph WSW9.7 kmh WSW 15.0 mph24.1 kmh 29.75 in1007.5 mb 0.00 in0.0 mm 0.00 in0.0 mm 1.54 in39.1 mm
02:32 PM 78.7°F25.9°C 63.1°F17.3°C 59% Calm Calm 15.0 mph24.1 kmh 29.75 in1007.5 mb 0.00 in0.0 mm 0.00 in0.0 mm 1.54 in39.1 mm
02:37 PM 78.4°F25.8°C 62.9°F17.2°C 59% Calm Calm 15.0 mph24.1 kmh 29.75 in1007.5 mb 0.00 in0.0 mm 0.00 in0.0 mm 1.54 in39.1 mm
02:42 PM 78.2°F25.7°C 62.7°F17.1°C 59% 1.0 mph N1.6 kmh N 15.0 mph24.1 kmh 29.75 in1007.5 mb 0.00 in0.0 mm 0.00 in0.0 mm 1.54 in39.1 mm
02:47 PM 78.2°F25.7°C 62.2°F16.8°C 58% Calm Calm 10.0 mph16.1 kmh 29.75 in1007.5 mb 0.00 in0.0 mm 0.00 in0.0 mm 1.54 in39.1 mm
02:52 PM 78.2°F25.7°C 62.2°F16.8°C 58% 2.0 mph NW3.2 kmh NW 4.0 mph6.4 kmh 29.75 in1007.5 mb 0.00 in0.0 mm 0.00 in0.0 mm 1.54 in39.1 mm
02:57 PM 78.2°F25.7°C 61.7°F16.5°C 57% Calm Calm 5.0 mph8.0 kmh 29.76 in1007.8 mb 0.00 in0.0 mm 0.00 in0.0 mm 1.54 in39.1 mm
03:02 PM 78.2°F25.7°C 61.7°F16.5°C 57% 1.0 mph NW1.6 kmh NW 8.0 mph12.9 kmh 29.76 in1007.8 mb 0.00 in0.0 mm 0.00 in0.0 mm 1.54 in39.1 mm
03:07 PM 78.2°F25.7°C 61.2°F16.2°C 56% Calm Calm 8.0 mph12.9 kmh 29.76 in1007.8 mb 0.00 in0.0 mm 0.00 in0.0 mm 1.54 in39.1 mm
03:12 PM 78.2°F25.7°C 60.7°F15.9°C 55% 1.0 mph WNW1.6 kmh WNW 10.0 mph16.1 kmh 29.76 in1007.8 mb 0.00 in0.0 mm 0.00 in0.0 mm 1.54 in39.1 mm
03:17 PM 77.9°F25.5°C 59.9°F15.5°C 54% Calm Calm 12.0 mph19.3 kmh 29.76 in1007.8 mb 0.00 in0.0 mm 0.00 in0.0 mm 1.54 in39.1 mm
03:22 PM 77.8°F25.4°C 59.8°F15.4°C 54% Calm Calm 12.0 mph19.3 kmh 29.76 in1007.8 mb 0.00 in0.0 mm 0.00 in0.0 mm 1.54 in39.1 mm
03:27 PM 77.7°F25.4°C 60.2°F15.7°C 55% 2.0 mph N3.2 kmh N 3.0 mph4.8 kmh 29.76 in1007.8 mb 0.00 in0.0 mm 0.00 in0.0 mm 1.54 in39.1 mm
03:32 PM 77.6°F25.3°C 59.6°F15.3°C 54% Calm Calm -- 29.76 in1007.8 mb 0.00 in0.0 mm 0.00 in0.0 mm 1.54 in39.1 mm
03:37 PM 77.6°F25.3°C 58.6°F14.8°C 52% Calm Calm 8.0 mph12.9 kmh 29.77 in1008.1 mb 0.00 in0.0 mm 0.00 in0.0 mm 1.54 in39.1 mm
03:42 PM 77.5°F25.3°C 58.5°F14.7°C 52% Calm Calm 8.0 mph12.9 kmh 29.77 in1008.1 mb 0.00 in0.0 mm 0.00 in0.0 mm 1.54 in39.1 mm
03:47 PM 77.4°F25.2°C 58.4°F14.7°C 52% Calm Calm 6.0 mph9.7 kmh 29.77 in1008.1 mb 0.00 in0.0 mm 0.00 in0.0 mm 1.54 in39.1 mm
03:52 PM 77.3°F25.2°C 58.3°F14.6°C 52% Calm Calm 9.0 mph14.5 kmh 29.77 in1008.1 mb 0.00 in0.0 mm 0.00 in0.0 mm 1.54 in39.1 mm
03:57 PM 77.3°F25.2°C 58.8°F14.9°C 53% 1.0 mph NNW1.6 kmh NNW 1.0 mph1.6 kmh 29.78 in1008.5 mb 0.00 in0.0 mm 0.00 in0.0 mm 1.54 in39.1 mm
04:02 PM 77.1°F25.1°C 58.6°F14.8°C 53% Calm Calm -- 29.78 in1008.5 mb 0.00 in0.0 mm 0.00 in0.0 mm 1.54 in39.1 mm
04:07 PM 77.1°F25.1°C 57.6°F14.2°C 51% Calm Calm 3.0 mph4.8 kmh 29.78 in1008.5 mb 0.00 in0.0 mm 0.00 in0.0 mm 1.54 in39.1 mm
04:12 PM 77.0°F25.0°C 56.9°F13.8°C 50% Calm Calm -- 29.79 in1008.8 mb 0.00 in0.0 mm 0.00 in0.0 mm 1.54 in39.1 mm
04:17 PM 76.8°F24.9°C 56.2°F13.4°C 49% Calm Calm 4.0 mph6.4 kmh 29.79 in1008.8 mb 0.00 in0.0 mm 0.00 in0.0 mm 1.54 in39.1 mm
04:22 PM 76.7°F24.8°C 55.5°F13.1°C 48% Calm Calm 7.0 mph11.3 kmh 29.80 in1009.1 mb 0.00 in0.0 mm 0.00 in0.0 mm 1.54 in39.1 mm
04:27 PM 76.6°F24.8°C 56.0°F13.3°C 49% Calm Calm 3.0 mph4.8 kmh 29.79 in1008.8 mb 0.00 in0.0 mm 0.00 in0.0 mm 1.54 in39.1 mm
04:32 PM 76.4°F24.7°C 55.8°F13.2°C 49% Calm Calm 4.0 mph6.4 kmh 29.80 in1009.1 mb 0.00 in0.0 mm 0.00 in0.0 mm 1.54 in39.1 mm
04:37 PM 76.1°F24.5°C 55.5°F13.1°C 49% Calm Calm 5.0 mph8.0 kmh 29.80 in1009.1 mb 0.00 in0.0 mm 0.00 in0.0 mm 1.54 in39.1 mm
04:42 PM 75.9°F24.4°C 55.9°F13.3°C 50% Calm Calm -- 29.80 in1009.1 mb 0.00 in0.0 mm 0.00 in0.0 mm 1.54 in39.1 mm
04:47 PM 75.7°F24.3°C 55.7°F13.2°C 50% Calm Calm -- 29.81 in1009.5 mb 0.00 in0.0 mm 0.00 in0.0 mm 1.54 in39.1 mm
04:52 PM 75.4°F24.1°C 56.0°F13.3°C 51% Calm Calm -- 29.81 in1009.5 mb 0.00 in0.0 mm 0.00 in0.0 mm 1.54 in39.1 mm
04:57 PM 75.1°F23.9°C 55.7°F13.2°C 51% Calm Calm 2.0 mph3.2 kmh 29.81 in1009.5 mb 0.00 in0.0 mm 0.00 in0.0 mm 1.54 in39.1 mm
05:02 PM 74.8°F23.8°C 55.4°F13.0°C 51% Calm Calm -- 29.81 in1009.5 mb 0.00 in0.0 mm 0.00 in0.0 mm 1.54 in39.1 mm
05:07 PM 74.5°F23.6°C 55.2°F12.9°C 51% Calm Calm 3.0 mph4.8 kmh 29.82 in1009.8 mb 0.00 in0.0 mm 0.00 in0.0 mm 1.54 in39.1 mm
05:12 PM 74.2°F23.4°C 55.4°F13.0°C 52% Calm Calm -- 29.83 in1010.2 mb 0.00 in0.0 mm 0.00 in0.0 mm 1.54 in39.1 mm
05:17 PM 73.8°F23.2°C 55.1°F12.8°C 52% Calm Calm 3.0 mph4.8 kmh 29.83 in1010.2 mb 0.00 in0.0 mm 0.00 in0.0 mm 1.54 in39.1 mm
05:22 PM 73.4°F23.0°C 55.2°F12.9°C 53% Calm Calm -- 29.83 in1010.2 mb 0.00 in0.0 mm 0.00 in0.0 mm 1.54 in39.1 mm
05:27 PM 73.3°F22.9°C 54.6°F12.6°C 52% Calm Calm 10.0 mph16.1 kmh 29.83 in1010.2 mb 0.00 in0.0 mm 0.00 in0.0 mm 1.54 in39.1 mm
05:32 PM 73.1°F22.8°C 54.9°F12.7°C 53% Calm Calm 1.0 mph1.6 kmh 29.83 in1010.2 mb 0.00 in0.0 mm 0.00 in0.0 mm 1.54 in39.1 mm
05:37 PM 72.7°F22.6°C 54.6°F12.6°C 53% Calm Calm 2.0 mph3.2 kmh 29.83 in1010.2 mb 0.00 in0.0 mm 0.00 in0.0 mm 1.54 in39.1 mm
05:42 PM 72.6°F22.6°C 54.0°F12.2°C 52% Calm Calm 8.0 mph12.9 kmh 29.84 in1010.5 mb 0.00 in0.0 mm 0.00 in0.0 mm 1.54 in39.1 mm
05:47 PM 72.6°F22.6°C 54.0°F12.2°C 52% Calm Calm -- 29.84 in1010.5 mb 0.00 in0.0 mm 0.00 in0.0 mm 1.54 in39.1 mm
05:52 PM 72.5°F22.5°C 53.9°F12.2°C 52% Calm Calm 10.0 mph16.1 kmh 29.85 in1010.8 mb 0.00 in0.0 mm 0.00 in0.0 mm 1.54 in39.1 mm
05:57 PM 72.4°F22.4°C 53.8°F12.1°C 52% Calm Calm 9.0 mph14.5 kmh 29.85 in1010.8 mb 0.00 in0.0 mm 0.00 in0.0 mm 1.54 in39.1 mm
06:02 PM 72.2°F22.3°C 53.6°F12.0°C 52% 8.0 mph NNW12.9 kmh NNW 10.0 mph16.1 kmh 29.85 in1010.8 mb 0.00 in0.0 mm 0.00 in0.0 mm 1.54 in39.1 mm
06:07 PM 72.1°F22.3°C 53.5°F11.9°C 52% Calm Calm 10.0 mph16.1 kmh 29.85 in1010.8 mb 0.00 in0.0 mm 0.00 in0.0 mm 1.54 in39.1 mm
06:12 PM 71.9°F22.2°C 53.3°F11.8°C 52% Calm Calm 10.0 mph16.1 kmh 29.86 in1011.2 mb 0.00 in0.0 mm 0.00 in0.0 mm 1.54 in39.1 mm
06:17 PM 71.8°F22.1°C 53.7°F12.1°C 53% Calm Calm -- 29.86 in1011.2 mb 0.00 in0.0 mm 0.00 in0.0 mm 1.54 in39.1 mm
06:22 PM 71.4°F21.9°C 52.8°F11.6°C 52% Calm Calm -- 29.87 in1011.5 mb 0.00 in0.0 mm 0.00 in0.0 mm 1.54 in39.1 mm
06:27 PM 71.1°F21.7°C 53.6°F12.0°C 54% Calm Calm -- 29.87 in1011.5 mb 0.00 in0.0 mm 0.00 in0.0 mm 1.54 in39.1 mm
06:32 PM 70.6°F21.4°C 53.1°F11.7°C 54% Calm Calm 4.0 mph6.4 kmh 29.87 in1011.5 mb 0.00 in0.0 mm 0.00 in0.0 mm 1.54 in39.1 mm
06:37 PM 70.5°F21.4°C 53.0°F11.7°C 54% Calm Calm 4.0 mph6.4 kmh 29.87 in1011.5 mb 0.00 in0.0 mm 0.00 in0.0 mm 1.54 in39.1 mm
06:42 PM 70.5°F21.4°C 52.5°F11.4°C 53% 4.0 mph NNW6.4 kmh NNW 6.0 mph9.7 kmh 29.87 in1011.5 mb 0.00 in0.0 mm 0.00 in0.0 mm 1.54 in39.1 mm
06:47 PM 70.8°F21.6°C 52.8°F11.6°C 53% Calm Calm 7.0 mph11.3 kmh 29.88 in1011.9 mb 0.00 in0.0 mm 0.00 in0.0 mm 1.54 in39.1 mm
06:52 PM 70.6°F21.4°C 53.1°F11.7°C 54% Calm Calm -- 29.88 in1011.9 mb 0.00 in0.0 mm 0.00 in0.0 mm 1.54 in39.1 mm
06:57 PM 70.4°F21.3°C 52.4°F11.3°C 53% Calm Calm 8.0 mph12.9 kmh 29.88 in1011.9 mb 0.00 in0.0 mm 0.00 in0.0 mm 1.54 in39.1 mm
07:02 PM 70.2°F21.2°C 52.8°F11.6°C 54% 2.0 mph WNW3.2 kmh WNW 4.0 mph6.4 kmh 29.88 in1011.9 mb 0.00 in0.0 mm 0.00 in0.0 mm 1.54 in39.1 mm
07:07 PM 70.0°F21.1°C 52.6°F11.4°C 54% Calm Calm 5.0 mph8.0 kmh 29.88 in1011.9 mb 0.00 in0.0 mm 0.00 in0.0 mm 1.54 in39.1 mm
07:12 PM 69.9°F21.1°C 52.5°F11.4°C 54% 1.0 mph NNW1.6 kmh NNW 6.0 mph9.7 kmh 29.89 in1012.2 mb 0.00 in0.0 mm 0.00 in0.0 mm 1.54 in39.1 mm
07:17 PM 69.8°F21.0°C 52.9°F11.6°C 55% Calm Calm -- 29.89 in1012.2 mb 0.00 in0.0 mm 0.00 in0.0 mm 1.54 in39.1 mm
07:22 PM 69.5°F20.8°C 52.6°F11.4°C 55% Calm Calm 1.0 mph1.6 kmh 29.89 in1012.2 mb 0.00 in0.0 mm 0.00 in0.0 mm 1.54 in39.1 mm
07:27 PM 69.4°F20.8°C 52.5°F11.4°C 55% Calm Calm 3.0 mph4.8 kmh 29.90 in1012.5 mb 0.00 in0.0 mm 0.00 in0.0 mm 1.54 in39.1 mm
07:32 PM 69.1°F20.6°C 52.7°F11.5°C 56% Calm Calm -- 29.90 in1012.5 mb 0.00 in0.0 mm 0.00 in0.0 mm 1.54 in39.1 mm
07:37 PM 68.7°F20.4°C 52.4°F11.3°C 56% Calm Calm 2.0 mph3.2 kmh 29.90 in1012.5 mb 0.00 in0.0 mm 0.00 in0.0 mm 1.54 in39.1 mm
07:42 PM 68.5°F20.3°C 52.7°F11.5°C 57% Calm Calm 3.0 mph4.8 kmh 29.90 in1012.5 mb 0.00 in0.0 mm 0.00 in0.0 mm 1.54 in39.1 mm
07:47 PM 68.4°F20.2°C 52.1°F11.2°C 56% 2.0 mph NNW3.2 kmh NNW 7.0 mph11.3 kmh 29.90 in1012.5 mb 0.00 in0.0 mm 0.00 in0.0 mm 1.54 in39.1 mm
07:52 PM 68.4°F20.2°C 52.6°F11.4°C 57% Calm Calm -- 29.91 in1012.9 mb 0.00 in0.0 mm 0.00 in0.0 mm 1.54 in39.1 mm
07:57 PM 68.3°F20.2°C 52.5°F11.4°C 57% Calm Calm -- 29.91 in1012.9 mb 0.00 in0.0 mm 0.00 in0.0 mm 1.54 in39.1 mm
08:02 PM 68.1°F20.1°C 52.8°F11.6°C 58% Calm Calm -- 29.91 in1012.9 mb 0.00 in0.0 mm 0.00 in0.0 mm 1.54 in39.1 mm
08:07 PM 67.8°F19.9°C 52.5°F11.4°C 58% Calm Calm -- 29.92 in1013.2 mb 0.00 in0.0 mm 0.00 in0.0 mm 1.54 in39.1 mm
08:12 PM 67.5°F19.7°C 52.7°F11.5°C 59% Calm Calm -- 29.91 in1012.9 mb 0.00 in0.0 mm 0.00 in0.0 mm 1.54 in39.1 mm
08:17 PM 67.1°F19.5°C 52.3°F11.3°C 59% Calm Calm -- 29.91 in1012.9 mb 0.00 in0.0 mm 0.00 in0.0 mm 1.54 in39.1 mm
08:22 PM 67.1°F19.5°C 52.3°F11.3°C 59% Calm Calm 4.0 mph6.4 kmh 29.92 in1013.2 mb 0.00 in0.0 mm 0.00 in0.0 mm 1.54 in39.1 mm
08:27 PM 67.1°F19.5°C 52.3°F11.3°C 59% Calm Calm -- 29.92 in1013.2 mb 0.00 in0.0 mm 0.00 in0.0 mm 1.54 in39.1 mm
08:32 PM 67.2°F19.6°C 52.4°F11.3°C 59% Calm Calm -- 29.92 in1013.2 mb 0.00 in0.0 mm 0.00 in0.0 mm 1.54 in39.1 mm
08:37 PM 66.9°F19.4°C 52.6°F11.4°C 60% Calm Calm -- 29.93 in1013.5 mb 0.00 in0.0 mm 0.00 in0.0 mm 1.54 in39.1 mm
08:42 PM 66.6°F19.2°C 52.3°F11.3°C 60% Calm Calm -- 29.93 in1013.5 mb 0.00 in0.0 mm 0.00 in0.0 mm 1.54 in39.1 mm
08:47 PM 66.2°F19.0°C 52.3°F11.3°C 61% Calm Calm -- 29.93 in1013.5 mb 0.00 in0.0 mm 0.00 in0.0 mm 1.54 in39.1 mm
08:52 PM 65.8°F18.8°C 52.4°F11.3°C 62% Calm Calm -- 29.94 in1013.9 mb 0.00 in0.0 mm 0.00 in0.0 mm 1.54 in39.1 mm
08:57 PM 65.6°F18.7°C 52.2°F11.2°C 62% Calm Calm -- 29.94 in1013.9 mb 0.00 in0.0 mm 0.00 in0.0 mm 1.54 in39.1 mm
09:02 PM 65.5°F18.6°C 52.6°F11.4°C 63% Calm Calm -- 29.94 in1013.9 mb 0.00 in0.0 mm 0.00 in0.0 mm 1.54 in39.1 mm
09:07 PM 65.4°F18.6°C 52.5°F11.4°C 63% Calm Calm 3.0 mph4.8 kmh 29.95 in1014.2 mb 0.00 in0.0 mm 0.00 in0.0 mm 1.54 in39.1 mm
09:12 PM 65.5°F18.6°C 52.1°F11.2°C 62% 1.0 mph NW1.6 kmh NW 1.0 mph1.6 kmh 29.95 in1014.2 mb 0.00 in0.0 mm 0.00 in0.0 mm 1.54 in39.1 mm
09:17 PM 65.7°F18.7°C 52.3°F11.3°C 62% Calm Calm -- 29.95 in1014.2 mb 0.00 in0.0 mm 0.00 in0.0 mm 1.54 in39.1 mm
09:22 PM 65.6°F18.7°C 52.2°F11.2°C 62% Calm Calm -- 29.95 in1014.2 mb 0.00 in0.0 mm 0.00 in0.0 mm 1.54 in39.1 mm
09:27 PM 65.3°F18.5°C 52.4°F11.3°C 63% 2.0 mph NNW3.2 kmh NNW 2.0 mph3.2 kmh 29.95 in1014.2 mb 0.00 in0.0 mm 0.00 in0.0 mm 1.54 in39.1 mm
09:32 PM 65.2°F18.4°C 52.3°F11.3°C 63% Calm Calm 5.0 mph8.0 kmh 29.95 in1014.2 mb 0.00 in0.0 mm 0.00 in0.0 mm 1.54 in39.1 mm
09:37 PM 64.7°F18.2°C 52.2°F11.2°C 64% 1.0 mph NW1.6 kmh NW 5.0 mph8.0 kmh 29.95 in1014.2 mb 0.00 in0.0 mm 0.00 in0.0 mm 1.54 in39.1 mm
09:42 PM 64.4°F18.0°C 52.4°F11.3°C 65% Calm Calm -- 29.95 in1014.2 mb 0.00 in0.0 mm 0.00 in0.0 mm 1.54 in39.1 mm
09:47 PM 64.3°F17.9°C 51.9°F11.1°C 64% Calm Calm -- 29.96 in1014.6 mb 0.00 in0.0 mm 0.00 in0.0 mm 1.54 in39.1 mm
09:52 PM 64.1°F17.8°C 52.1°F11.2°C 65% Calm Calm -- 29.96 in1014.6 mb 0.00 in0.0 mm 0.00 in0.0 mm 1.54 in39.1 mm
09:57 PM 63.8°F17.7°C 52.2°F11.2°C 66% Calm Calm -- 29.96 in1014.6 mb 0.00 in0.0 mm 0.00 in0.0 mm 1.54 in39.1 mm
10:02 PM 63.5°F17.5°C 51.9°F11.1°C 66% Calm Calm -- 29.96 in1014.6 mb 0.00 in0.0 mm 0.00 in0.0 mm 1.54 in39.1 mm
10:07 PM 63.4°F17.4°C 51.8°F11.0°C 66% Calm Calm -- 29.96 in1014.6 mb 0.00 in0.0 mm 0.00 in0.0 mm 1.54 in39.1 mm
10:12 PM 63.4°F17.4°C 51.8°F11.0°C 66% Calm Calm -- 29.96 in1014.6 mb 0.00 in0.0 mm 0.00 in0.0 mm 1.54 in39.1 mm
10:17 PM 63.2°F17.3°C 51.6°F10.9°C 66% Calm Calm -- 29.96 in1014.6 mb 0.00 in0.0 mm 0.00 in0.0 mm 1.54 in39.1 mm
10:22 PM 63.0°F17.2°C 52.3°F11.3°C 68% Calm Calm -- 29.97 in1014.9 mb 0.00 in0.0 mm 0.00 in0.0 mm 1.54 in39.1 mm
10:27 PM 62.7°F17.1°C 52.0°F11.1°C 68% Calm Calm -- 29.97 in1014.9 mb 0.00 in0.0 mm 0.00 in0.0 mm 1.54 in39.1 mm
10:32 PM 62.4°F16.9°C 51.7°F10.9°C 68% Calm Calm -- 29.97 in1014.9 mb 0.00 in0.0 mm 0.00 in0.0 mm 1.54 in39.1 mm
10:37 PM 62.0°F16.7°C 52.1°F11.2°C 70% Calm Calm -- 29.97 in1014.9 mb 0.00 in0.0 mm 0.00 in0.0 mm 1.54 in39.1 mm
10:42 PM 61.6°F16.4°C 51.7°F10.9°C 70% Calm Calm -- 29.98 in1015.2 mb 0.00 in0.0 mm 0.00 in0.0 mm 1.54 in39.1 mm
10:47 PM 60.9°F16.1°C 51.8°F11.0°C 72% Calm Calm -- 29.97 in1014.9 mb 0.00 in0.0 mm 0.00 in0.0 mm 1.54 in39.1 mm
10:52 PM 60.2°F15.7°C 51.9°F11.1°C 74% Calm Calm -- 29.97 in1014.9 mb 0.00 in0.0 mm 0.00 in0.0 mm 1.54 in39.1 mm
10:57 PM 60.1°F15.6°C 51.8°F11.0°C 74% Calm Calm -- 29.97 in1014.9 mb 0.00 in0.0 mm 0.00 in0.0 mm 1.54 in39.1 mm
11:02 PM 60.3°F15.7°C 51.6°F10.9°C 73% Calm Calm -- 29.97 in1014.9 mb 0.00 in0.0 mm 0.00 in0.0 mm 7.13 in181.1 mm
11:07 PM 60.5°F15.8°C 51.8°F11.0°C 73% Calm Calm -- 29.97 in1014.9 mb 0.00 in0.0 mm 0.00 in0.0 mm 7.13 in181.1 mm
11:12 PM 60.5°F15.8°C 51.8°F11.0°C 73% Calm Calm -- 29.97 in1014.9 mb 0.00 in0.0 mm 0.00 in0.0 mm 7.13 in181.1 mm
11:17 PM 60.5°F15.8°C 51.8°F11.0°C 73% Calm Calm -- 29.98 in1015.2 mb 0.00 in0.0 mm 0.00 in0.0 mm 7.13 in181.1 mm
11:22 PM 60.4°F15.8°C 51.7°F10.9°C 73% Calm Calm -- 29.98 in1015.2 mb 0.00 in0.0 mm 0.00 in0.0 mm 7.13 in181.1 mm
11:27 PM 60.3°F15.7°C 51.6°F10.9°C 73% Calm Calm -- 29.98 in1015.2 mb 0.00 in0.0 mm 0.00 in0.0 mm 7.13 in181.1 mm
11:32 PM 60.0°F15.6°C 51.3°F10.7°C 73% 2.0 mph NNW3.2 kmh NNW 3.0 mph4.8 kmh 29.98 in1015.2 mb 0.00 in0.0 mm 0.00 in0.0 mm 7.13 in181.1 mm
11:37 PM 60.2°F15.7°C 51.5°F10.8°C 73% Calm Calm 4.0 mph6.4 kmh 29.98 in1015.2 mb 0.00 in0.0 mm 0.00 in0.0 mm 7.13 in181.1 mm
11:42 PM 60.3°F15.7°C 51.2°F10.7°C 72% Calm Calm -- 29.98 in1015.2 mb 0.00 in0.0 mm 0.00 in0.0 mm 7.13 in181.1 mm
11:47 PM 60.3°F15.7°C 51.2°F10.7°C 72% 1.0 mph NW1.6 kmh NW 4.0 mph6.4 kmh 29.98 in1015.2 mb 0.00 in0.0 mm 0.00 in0.0 mm 7.13 in181.1 mm
11:52 PM 60.5°F15.8°C 51.0°F10.6°C 71% 1.0 mph NW1.6 kmh NW 7.0 mph11.3 kmh 29.98 in1015.2 mb 0.00 in0.0 mm 0.00 in0.0 mm 7.13 in181.1 mm
11:57 PM 60.5°F15.8°C 51.0°F10.6°C 71% 2.0 mph NNW3.2 kmh NNW 8.0 mph12.9 kmh 29.98 in1015.2 mb 0.00 in0.0 mm 0.00 in0.0 mm 7.13 in181.1 mm